sensor_id;sensor_type;location;lat;lon;timestamp;P1;durP1;ratioP1;P2;durP2;ratioP2
49730;SDS011;35622;52.008;5.426;2024-02-15T00:00:36;21.63;;;9.60;;
49730;SDS011;35622;52.008;5.426;2024-02-15T00:03:02;22.27;;;10.10;;
49730;SDS011;35622;52.008;5.426;2024-02-15T00:05:31;18.27;;;9.40;;
49730;SDS011;35622;52.008;5.426;2024-02-15T00:07:57;24.13;;;10.55;;
49730;SDS011;35622;52.008;5.426;2024-02-15T00:10:23;22.20;;;9.85;;
49730;SDS011;35622;52.008;5.426;2024-02-15T00:12:50;17.10;;;9.55;;
49730;SDS011;35622;52.008;5.426;2024-02-15T00:15:16;17.13;;;9.43;;
49730;SDS011;35622;52.008;5.426;2024-02-15T00:17:42;19.38;;;8.77;;
49730;SDS011;35622;52.008;5.426;2024-02-15T00:20:07;32.30;;;10.38;;
49730;SDS011;35622;52.008;5.426;2024-02-15T00:22:34;17.90;;;8.82;;
49730;SDS011;35622;52.008;5.426;2024-02-15T00:25:02;19.05;;;9.32;;
49730;SDS011;35622;52.008;5.426;2024-02-15T00:27:29;19.73;;;9.80;;
49730;SDS011;35622;52.008;5.426;2024-02-15T00:29:57;24.23;;;10.80;;
49730;SDS011;35622;52.008;5.426;2024-02-15T00:32:23;18.20;;;9.80;;
49730;SDS011;35622;52.008;5.426;2024-02-15T00:34:49;24.63;;;10.43;;
49730;SDS011;35622;52.008;5.426;2024-02-15T00:37:14;21.90;;;10.52;;
49730;SDS011;35622;52.008;5.426;2024-02-15T00:39:41;37.25;;;11.65;;
49730;SDS011;35622;52.008;5.426;2024-02-15T00:42:08;21.90;;;11.20;;
49730;SDS011;35622;52.008;5.426;2024-02-15T00:44:34;18.50;;;10.82;;
49730;SDS011;35622;52.008;5.426;2024-02-15T00:47:00;17.85;;;10.38;;
49730;SDS011;35622;52.008;5.426;2024-02-15T00:49:25;68.15;;;13.13;;
49730;SDS011;35622;52.008;5.426;2024-02-15T00:51:53;20.00;;;11.23;;
49730;SDS011;35622;52.008;5.426;2024-02-15T00:54:18;16.65;;;11.18;;
49730;SDS011;35622;52.008;5.426;2024-02-15T00:56:44;17.35;;;11.57;;
49730;SDS011;35622;52.008;5.426;2024-02-15T00:59:10;16.92;;;11.80;;
49730;SDS011;35622;52.008;5.426;2024-02-15T01:01:35;33.30;;;12.15;;
49730;SDS011;35622;52.008;5.426;2024-02-15T01:04:05;50.40;;;12.52;;
49730;SDS011;35622;52.008;5.426;2024-02-15T01:06:31;21.33;;;11.57;;
49730;SDS011;35622;52.008;5.426;2024-02-15T01:08:57;27.70;;;13.77;;
49730;SDS011;35622;52.008;5.426;2024-02-15T01:11:26;17.38;;;11.35;;
49730;SDS011;35622;52.008;5.426;2024-02-15T01:13:53;25.85;;;14.98;;
49730;SDS011;35622;52.008;5.426;2024-02-15T01:16:19;27.75;;;13.80;;
49730;SDS011;35622;52.008;5.426;2024-02-15T01:18:46;25.58;;;14.63;;
49730;SDS011;35622;52.008;5.426;2024-02-15T01:21:12;30.30;;;16.23;;
49730;SDS011;35622;52.008;5.426;2024-02-15T01:23:38;32.30;;;17.58;;
49730;SDS011;35622;52.008;5.426;2024-02-15T01:26:03;35.38;;;18.20;;
49730;SDS011;35622;52.008;5.426;2024-02-15T01:28:30;35.13;;;20.02;;
49730;SDS011;35622;52.008;5.426;2024-02-15T01:30:55;34.33;;;18.58;;
49730;SDS011;35622;52.008;5.426;2024-02-15T01:33:21;33.45;;;21.23;;
49730;SDS011;35622;52.008;5.426;2024-02-15T01:35:47;36.72;;;20.55;;
49730;SDS011;35622;52.008;5.426;2024-02-15T01:38:13;40.70;;;21.15;;
49730;SDS011;35622;52.008;5.426;2024-02-15T01:40:39;38.33;;;21.88;;
49730;SDS011;35622;52.008;5.426;2024-02-15T01:43:04;40.15;;;21.17;;
49730;SDS011;35622;52.008;5.426;2024-02-15T01:45:30;39.88;;;21.88;;
49730;SDS011;35622;52.008;5.426;2024-02-15T01:47:56;38.95;;;20.75;;
49730;SDS011;35622;52.008;5.426;2024-02-15T01:50:22;38.17;;;21.20;;
49730;SDS011;35622;52.008;5.426;2024-02-15T01:52:51;38.13;;;20.75;;
49730;SDS011;35622;52.008;5.426;2024-02-15T01:55:19;38.50;;;21.45;;
49730;SDS011;35622;52.008;5.426;2024-02-15T01:57:46;40.55;;;21.52;;
49730;SDS011;35622;52.008;5.426;2024-02-15T02:00:15;36.50;;;19.50;;
49730;SDS011;35622;52.008;5.426;2024-02-15T02:02:44;35.38;;;19.60;;
49730;SDS011;35622;52.008;5.426;2024-02-15T02:05:10;34.75;;;18.92;;
49730;SDS011;35622;52.008;5.426;2024-02-15T02:07:36;34.15;;;19.65;;
49730;SDS011;35622;52.008;5.426;2024-02-15T02:10:03;38.03;;;19.42;;
49730;SDS011;35622;52.008;5.426;2024-02-15T02:12:30;32.67;;;18.48;;
49730;SDS011;35622;52.008;5.426;2024-02-15T02:14:56;46.67;;;18.63;;
49730;SDS011;35622;52.008;5.426;2024-02-15T02:17:22;32.17;;;17.67;;
49730;SDS011;35622;52.008;5.426;2024-02-15T02:19:48;29.60;;;17.42;;
49730;SDS011;35622;52.008;5.426;2024-02-15T02:22:16;32.55;;;17.10;;
49730;SDS011;35622;52.008;5.426;2024-02-15T02:24:55;27.40;;;15.95;;
49730;SDS011;35622;52.008;5.426;2024-02-15T02:27:25;30.75;;;16.63;;
49730;SDS011;35622;52.008;5.426;2024-02-15T02:29:56;29.73;;;16.23;;
49730;SDS011;35622;52.008;5.426;2024-02-15T02:32:23;26.27;;;15.60;;
49730;SDS011;35622;52.008;5.426;2024-02-15T02:34:49;28.25;;;15.57;;
49730;SDS011;35622;52.008;5.426;2024-02-15T02:37:14;31.58;;;16.25;;
49730;SDS011;35622;52.008;5.426;2024-02-15T02:39:40;27.90;;;15.32;;
49730;SDS011;35622;52.008;5.426;2024-02-15T02:42:08;25.77;;;15.00;;
49730;SDS011;35622;52.008;5.426;2024-02-15T02:44:33;25.58;;;14.15;;
49730;SDS011;35622;52.008;5.426;2024-02-15T02:46:59;28.20;;;13.85;;
49730;SDS011;35622;52.008;5.426;2024-02-15T02:49:25;29.02;;;14.82;;
49730;SDS011;35622;52.008;5.426;2024-02-15T02:51:51;25.23;;;13.85;;
49730;SDS011;35622;52.008;5.426;2024-02-15T02:54:16;27.38;;;14.30;;
49730;SDS011;35622;52.008;5.426;2024-02-15T02:56:42;26.50;;;15.10;;
49730;SDS011;35622;52.008;5.426;2024-02-15T02:59:10;50.85;;;14.90;;
49730;SDS011;35622;52.008;5.426;2024-02-15T03:01:36;49.72;;;15.45;;
49730;SDS011;35622;52.008;5.426;2024-02-15T03:04:01;22.15;;;13.32;;
49730;SDS011;35622;52.008;5.426;2024-02-15T03:06:27;28.50;;;14.30;;
49730;SDS011;35622;52.008;5.426;2024-02-15T03:08:53;23.50;;;13.05;;
49730;SDS011;35622;52.008;5.426;2024-02-15T03:11:22;27.83;;;13.32;;
49730;SDS011;35622;52.008;5.426;2024-02-15T03:13:48;24.83;;;14.02;;
49730;SDS011;35622;52.008;5.426;2024-02-15T03:16:14;26.40;;;14.25;;
49730;SDS011;35622;52.008;5.426;2024-02-15T03:18:41;27.25;;;13.88;;
49730;SDS011;35622;52.008;5.426;2024-02-15T03:21:08;25.95;;;14.13;;
49730;SDS011;35622;52.008;5.426;2024-02-15T03:23:36;25.10;;;13.50;;
49730;SDS011;35622;52.008;5.426;2024-02-15T03:26:07;28.25;;;14.10;;
49730;SDS011;35622;52.008;5.426;2024-02-15T03:28:33;31.33;;;13.55;;
49730;SDS011;35622;52.008;5.426;2024-02-15T03:31:01;25.52;;;13.63;;
49730;SDS011;35622;52.008;5.426;2024-02-15T03:33:27;19.80;;;12.40;;
49730;SDS011;35622;52.008;5.426;2024-02-15T03:35:57;24.42;;;13.50;;
49730;SDS011;35622;52.008;5.426;2024-02-15T03:38:25;23.80;;;12.82;;
49730;SDS011;35622;52.008;5.426;2024-02-15T03:40:52;27.13;;;13.10;;
49730;SDS011;35622;52.008;5.426;2024-02-15T03:43:18;23.25;;;12.50;;
49730;SDS011;35622;52.008;5.426;2024-02-15T03:45:44;25.35;;;12.63;;
49730;SDS011;35622;52.008;5.426;2024-02-15T03:48:09;27.55;;;12.20;;
49730;SDS011;35622;52.008;5.426;2024-02-15T03:50:35;21.42;;;11.52;;
49730;SDS011;35622;52.008;5.426;2024-02-15T03:53:01;22.67;;;11.77;;
49730;SDS011;35622;52.008;5.426;2024-02-15T03:55:26;26.35;;;11.52;;
49730;SDS011;35622;52.008;5.426;2024-02-15T03:57:52;22.25;;;10.82;;
49730;SDS011;35622;52.008;5.426;2024-02-15T04:00:20;19.15;;;11.32;;
49730;SDS011;35622;52.008;5.426;2024-02-15T04:02:46;22.08;;;10.38;;
49730;SDS011;35622;52.008;5.426;2024-02-15T04:05:14;26.35;;;11.73;;
49730;SDS011;35622;52.008;5.426;2024-02-15T04:07:39;21.50;;;11.32;;
49730;SDS011;35622;52.008;5.426;2024-02-15T04:10:05;20.35;;;9.85;;
49730;SDS011;35622;52.008;5.426;2024-02-15T04:12:32;21.25;;;10.77;;
49730;SDS011;35622;52.008;5.426;2024-02-15T04:14:58;18.00;;;10.25;;
49730;SDS011;35622;52.008;5.426;2024-02-15T04:17:31;22.95;;;10.55;;
49730;SDS011;35622;52.008;5.426;2024-02-15T04:20:00;19.65;;;9.77;;
49730;SDS011;35622;52.008;5.426;2024-02-15T04:22:26;20.33;;;9.52;;
49730;SDS011;35622;52.008;5.426;2024-02-15T04:24:51;20.83;;;10.10;;
49730;SDS011;35622;52.008;5.426;2024-02-15T04:27:17;19.33;;;9.75;;
49730;SDS011;35622;52.008;5.426;2024-02-15T04:29:45;19.17;;;9.23;;
49730;SDS011;35622;52.008;5.426;2024-02-15T04:32:11;21.50;;;9.70;;
49730;SDS011;35622;52.008;5.426;2024-02-15T04:34:38;19.33;;;9.73;;
49730;SDS011;35622;52.008;5.426;2024-02-15T04:37:07;19.05;;;9.82;;
49730;SDS011;35622;52.008;5.426;2024-02-15T04:39:33;17.02;;;9.05;;
49730;SDS011;35622;52.008;5.426;2024-02-15T04:42:02;26.00;;;9.02;;
49730;SDS011;35622;52.008;5.426;2024-02-15T04:44:30;15.50;;;8.50;;
49730;SDS011;35622;52.008;5.426;2024-02-15T04:46:57;23.42;;;9.20;;
49730;SDS011;35622;52.008;5.426;2024-02-15T04:49:23;17.83;;;8.98;;
49730;SDS011;35622;52.008;5.426;2024-02-15T04:51:49;21.52;;;8.82;;
49730;SDS011;35622;52.008;5.426;2024-02-15T04:54:14;16.90;;;8.98;;
49730;SDS011;35622;52.008;5.426;2024-02-15T04:56:41;17.80;;;8.32;;
49730;SDS011;35622;52.008;5.426;2024-02-15T04:59:07;16.00;;;8.95;;
49730;SDS011;35622;52.008;5.426;2024-02-15T05:01:42;19.95;;;8.98;;
49730;SDS011;35622;52.008;5.426;2024-02-15T05:04:09;20.85;;;8.63;;
49730;SDS011;35622;52.008;5.426;2024-02-15T05:06:35;18.90;;;9.10;;
49730;SDS011;35622;52.008;5.426;2024-02-15T05:09:01;22.35;;;9.30;;
49730;SDS011;35622;52.008;5.426;2024-02-15T05:11:36;20.17;;;9.48;;
49730;SDS011;35622;52.008;5.426;2024-02-15T05:14:03;23.23;;;9.18;;
49730;SDS011;35622;52.008;5.426;2024-02-15T05:16:32;25.52;;;9.95;;
49730;SDS011;35622;52.008;5.426;2024-02-15T05:19:07;16.08;;;8.75;;
49730;SDS011;35622;52.008;5.426;2024-02-15T05:21:36;20.85;;;9.55;;
49730;SDS011;35622;52.008;5.426;2024-02-15T05:24:02;22.95;;;9.25;;
49730;SDS011;35622;52.008;5.426;2024-02-15T05:26:29;18.67;;;9.52;;
49730;SDS011;35622;52.008;5.426;2024-02-15T05:28:54;22.83;;;10.27;;
49730;SDS011;35622;52.008;5.426;2024-02-15T05:31:21;21.95;;;9.07;;
49730;SDS011;35622;52.008;5.426;2024-02-15T05:33:50;25.38;;;10.27;;
49730;SDS011;35622;52.008;5.426;2024-02-15T05:36:17;26.95;;;10.23;;
49730;SDS011;35622;52.008;5.426;2024-02-15T05:38:47;24.73;;;10.90;;
49730;SDS011;35622;52.008;5.426;2024-02-15T05:41:14;22.60;;;9.70;;
49730;SDS011;35622;52.008;5.426;2024-02-15T05:43:41;18.55;;;9.90;;
49730;SDS011;35622;52.008;5.426;2024-02-15T05:46:07;23.17;;;10.27;;
49730;SDS011;35622;52.008;5.426;2024-02-15T05:48:33;20.40;;;9.77;;
49730;SDS011;35622;52.008;5.426;2024-02-15T05:51:00;17.92;;;9.32;;
49730;SDS011;35622;52.008;5.426;2024-02-15T05:53:26;22.80;;;10.75;;
49730;SDS011;35622;52.008;5.426;2024-02-15T05:55:52;19.83;;;10.40;;
49730;SDS011;35622;52.008;5.426;2024-02-15T05:58:18;20.23;;;9.38;;
49730;SDS011;35622;52.008;5.426;2024-02-15T06:00:43;24.85;;;10.60;;
49730;SDS011;35622;52.008;5.426;2024-02-15T06:03:10;26.85;;;11.00;;
49730;SDS011;35622;52.008;5.426;2024-02-15T06:05:36;19.00;;;10.60;;
49730;SDS011;35622;52.008;5.426;2024-02-15T06:08:03;23.05;;;9.90;;
49730;SDS011;35622;52.008;5.426;2024-02-15T06:10:29;22.17;;;10.90;;
49730;SDS011;35622;52.008;5.426;2024-02-15T06:12:56;19.92;;;10.50;;
49730;SDS011;35622;52.008;5.426;2024-02-15T06:15:23;20.70;;;9.63;;
49730;SDS011;35622;52.008;5.426;2024-02-15T06:17:49;23.73;;;10.70;;
49730;SDS011;35622;52.008;5.426;2024-02-15T06:20:15;22.35;;;10.65;;
49730;SDS011;35622;52.008;5.426;2024-02-15T06:22:43;17.77;;;10.18;;
49730;SDS011;35622;52.008;5.426;2024-02-15T06:25:09;22.65;;;10.55;;
49730;SDS011;35622;52.008;5.426;2024-02-15T06:27:36;20.10;;;10.90;;
49730;SDS011;35622;52.008;5.426;2024-02-15T06:30:06;20.40;;;9.93;;
49730;SDS011;35622;52.008;5.426;2024-02-15T06:32:51;18.85;;;9.88;;
49730;SDS011;35622;52.008;5.426;2024-02-15T06:35:35;23.27;;;9.90;;
49730;SDS011;35622;52.008;5.426;2024-02-15T06:38:19;15.63;;;9.27;;
49730;SDS011;35622;52.008;5.426;2024-02-15T06:41:03;16.73;;;10.13;;
49730;SDS011;35622;52.008;5.426;2024-02-15T06:43:29;17.80;;;10.25;;
49730;SDS011;35622;52.008;5.426;2024-02-15T06:45:55;18.45;;;11.10;;
49730;SDS011;35622;52.008;5.426;2024-02-15T06:48:20;17.60;;;10.63;;
49730;SDS011;35622;52.008;5.426;2024-02-15T06:50:49;19.35;;;10.43;;
49730;SDS011;35622;52.008;5.426;2024-02-15T06:53:14;19.70;;;10.50;;
49730;SDS011;35622;52.008;5.426;2024-02-15T06:55:40;17.45;;;11.13;;
49730;SDS011;35622;52.008;5.426;2024-02-15T06:58:07;14.07;;;10.23;;
49730;SDS011;35622;52.008;5.426;2024-02-15T07:00:32;23.20;;;11.63;;
49730;SDS011;35622;52.008;5.426;2024-02-15T07:02:58;17.75;;;11.23;;
49730;SDS011;35622;52.008;5.426;2024-02-15T07:05:24;30.60;;;11.05;;
49730;SDS011;35622;52.008;5.426;2024-02-15T07:07:53;17.77;;;11.63;;
49730;SDS011;35622;52.008;5.426;2024-02-15T07:10:20;18.17;;;10.90;;
49730;SDS011;35622;52.008;5.426;2024-02-15T07:12:46;19.40;;;11.00;;
49730;SDS011;35622;52.008;5.426;2024-02-15T07:15:12;21.67;;;11.82;;
49730;SDS011;35622;52.008;5.426;2024-02-15T07:17:37;20.70;;;11.60;;
49730;SDS011;35622;52.008;5.426;2024-02-15T07:20:05;23.58;;;10.80;;
49730;SDS011;35622;52.008;5.426;2024-02-15T07:22:31;17.98;;;10.70;;
49730;SDS011;35622;52.008;5.426;2024-02-15T07:24:57;18.67;;;11.05;;
49730;SDS011;35622;52.008;5.426;2024-02-15T07:27:22;15.88;;;11.23;;
49730;SDS011;35622;52.008;5.426;2024-02-15T07:29:50;17.38;;;11.23;;
49730;SDS011;35622;52.008;5.426;2024-02-15T07:32:16;18.35;;;11.15;;
49730;SDS011;35622;52.008;5.426;2024-02-15T07:34:43;19.23;;;10.90;;
49730;SDS011;35622;52.008;5.426;2024-02-15T07:37:10;15.95;;;10.55;;
49730;SDS011;35622;52.008;5.426;2024-02-15T07:39:37;17.92;;;10.88;;
49730;SDS011;35622;52.008;5.426;2024-02-15T07:42:03;18.95;;;11.13;;
49730;SDS011;35622;52.008;5.426;2024-02-15T07:44:30;19.95;;;11.38;;
49730;SDS011;35622;52.008;5.426;2024-02-15T07:46:58;16.55;;;10.82;;
49730;SDS011;35622;52.008;5.426;2024-02-15T07:49:25;17.70;;;11.00;;
49730;SDS011;35622;52.008;5.426;2024-02-15T07:51:51;17.80;;;10.63;;
49730;SDS011;35622;52.008;5.426;2024-02-15T07:54:21;16.40;;;10.88;;
49730;SDS011;35622;52.008;5.426;2024-02-15T07:56:47;32.83;;;11.23;;
49730;SDS011;35622;52.008;5.426;2024-02-15T07:59:14;24.20;;;10.02;;
49730;SDS011;35622;52.008;5.426;2024-02-15T08:01:41;18.95;;;9.13;;
49730;SDS011;35622;52.008;5.426;2024-02-15T08:04:08;16.77;;;9.38;;
49730;SDS011;35622;52.008;5.426;2024-02-15T08:06:34;13.50;;;9.38;;
49730;SDS011;35622;52.008;5.426;2024-02-15T08:09:02;17.90;;;8.65;;
49730;SDS011;35622;52.008;5.426;2024-02-15T08:11:30;15.05;;;9.23;;
49730;SDS011;35622;52.008;5.426;2024-02-15T08:13:55;35.53;;;9.80;;
49730;SDS011;35622;52.008;5.426;2024-02-15T08:16:24;13.70;;;9.32;;
49730;SDS011;35622;52.008;5.426;2024-02-15T08:18:53;17.13;;;8.55;;
49730;SDS011;35622;52.008;5.426;2024-02-15T08:21:26;17.77;;;8.40;;
49730;SDS011;35622;52.008;5.426;2024-02-15T08:23:54;17.15;;;8.50;;
49730;SDS011;35622;52.008;5.426;2024-02-15T08:26:20;11.98;;;7.38;;
49730;SDS011;35622;52.008;5.426;2024-02-15T08:28:46;17.50;;;8.35;;
49730;SDS011;35622;52.008;5.426;2024-02-15T08:31:12;13.05;;;8.40;;
49730;SDS011;35622;52.008;5.426;2024-02-15T08:33:40;15.77;;;8.02;;
49730;SDS011;35622;52.008;5.426;2024-02-15T08:36:08;13.77;;;8.15;;
49730;SDS011;35622;52.008;5.426;2024-02-15T08:38:35;13.55;;;7.63;;
49730;SDS011;35622;52.008;5.426;2024-02-15T08:41:04;11.00;;;7.00;;
49730;SDS011;35622;52.008;5.426;2024-02-15T08:43:31;9.80;;;6.53;;
49730;SDS011;35622;52.008;5.426;2024-02-15T08:45:57;11.57;;;6.75;;
49730;SDS011;35622;52.008;5.426;2024-02-15T08:48:23;13.40;;;6.43;;
49730;SDS011;35622;52.008;5.426;2024-02-15T08:50:49;8.57;;;5.55;;
49730;SDS011;35622;52.008;5.426;2024-02-15T08:53:16;10.63;;;5.72;;
49730;SDS011;35622;52.008;5.426;2024-02-15T08:55:44;11.85;;;5.90;;
49730;SDS011;35622;52.008;5.426;2024-02-15T08:58:10;10.02;;;6.10;;
49730;SDS011;35622;52.008;5.426;2024-02-15T09:00:35;11.90;;;5.93;;
49730;SDS011;35622;52.008;5.426;2024-02-15T09:03:02;7.50;;;5.05;;
49730;SDS011;35622;52.008;5.426;2024-02-15T09:05:28;9.20;;;5.03;;
49730;SDS011;35622;52.008;5.426;2024-02-15T09:07:54;7.88;;;4.70;;
49730;SDS011;35622;52.008;5.426;2024-02-15T09:10:20;10.05;;;4.88;;
49730;SDS011;35622;52.008;5.426;2024-02-15T09:12:48;10.43;;;4.85;;
49730;SDS011;35622;52.008;5.426;2024-02-15T09:15:14;9.02;;;4.13;;
49730;SDS011;35622;52.008;5.426;2024-02-15T09:17:40;9.18;;;4.60;;
49730;SDS011;35622;52.008;5.426;2024-02-15T09:20:14;11.18;;;4.75;;
49730;SDS011;35622;52.008;5.426;2024-02-15T09:22:49;9.20;;;4.70;;
49730;SDS011;35622;52.008;5.426;2024-02-15T09:25:16;8.05;;;4.20;;
49730;SDS011;35622;52.008;5.426;2024-02-15T09:27:43;8.70;;;4.60;;
49730;SDS011;35622;52.008;5.426;2024-02-15T09:30:09;7.80;;;4.65;;
49730;SDS011;35622;52.008;5.426;2024-02-15T09:32:36;11.32;;;4.53;;
49730;SDS011;35622;52.008;5.426;2024-02-15T09:35:03;9.73;;;4.72;;
49730;SDS011;35622;52.008;5.426;2024-02-15T09:37:32;10.77;;;4.90;;
49730;SDS011;35622;52.008;5.426;2024-02-15T09:40:07;12.77;;;5.22;;
49730;SDS011;35622;52.008;5.426;2024-02-15T09:42:35;9.43;;;4.20;;
49730;SDS011;35622;52.008;5.426;2024-02-15T09:45:04;8.98;;;4.15;;
49730;SDS011;35622;52.008;5.426;2024-02-15T09:47:36;9.75;;;3.90;;
49730;SDS011;35622;52.008;5.426;2024-02-15T09:50:09;12.65;;;4.75;;
49730;SDS011;35622;52.008;5.426;2024-02-15T09:52:39;7.03;;;4.65;;
49730;SDS011;35622;52.008;5.426;2024-02-15T09:55:06;10.60;;;4.25;;
49730;SDS011;35622;52.008;5.426;2024-02-15T09:57:36;10.50;;;4.68;;
49730;SDS011;35622;52.008;5.426;2024-02-15T10:00:01;11.20;;;4.38;;
49730;SDS011;35622;52.008;5.426;2024-02-15T10:02:32;12.77;;;4.68;;
49730;SDS011;35622;52.008;5.426;2024-02-15T10:05:01;15.48;;;4.85;;
49730;SDS011;35622;52.008;5.426;2024-02-15T10:07:27;11.80;;;4.70;;
49730;SDS011;35622;52.008;5.426;2024-02-15T10:09:53;11.10;;;4.32;;
49730;SDS011;35622;52.008;5.426;2024-02-15T10:12:19;9.45;;;4.75;;
49730;SDS011;35622;52.008;5.426;2024-02-15T10:14:49;9.73;;;4.53;;
49730;SDS011;35622;52.008;5.426;2024-02-15T10:17:15;9.80;;;4.72;;
49730;SDS011;35622;52.008;5.426;2024-02-15T10:19:42;11.02;;;4.80;;
49730;SDS011;35622;52.008;5.426;2024-02-15T10:22:09;13.57;;;4.68;;
49730;SDS011;35622;52.008;5.426;2024-02-15T10:24:36;8.43;;;4.80;;
49730;SDS011;35622;52.008;5.426;2024-02-15T10:27:04;9.45;;;4.43;;
49730;SDS011;35622;52.008;5.426;2024-02-15T10:29:32;10.00;;;5.18;;
49730;SDS011;35622;52.008;5.426;2024-02-15T10:32:02;9.15;;;4.65;;
49730;SDS011;35622;52.008;5.426;2024-02-15T10:34:29;8.70;;;4.65;;
49730;SDS011;35622;52.008;5.426;2024-02-15T10:37:11;14.25;;;4.78;;
49730;SDS011;35622;52.008;5.426;2024-02-15T10:39:37;10.00;;;4.80;;
49730;SDS011;35622;52.008;5.426;2024-02-15T10:42:04;10.10;;;4.45;;
49730;SDS011;35622;52.008;5.426;2024-02-15T10:44:32;12.77;;;4.95;;
49730;SDS011;35622;52.008;5.426;2024-02-15T10:47:01;13.77;;;4.63;;
49730;SDS011;35622;52.008;5.426;2024-02-15T10:49:31;9.70;;;4.88;;
49730;SDS011;35622;52.008;5.426;2024-02-15T10:51:59;7.18;;;4.38;;
49730;SDS011;35622;52.008;5.426;2024-02-15T10:54:43;10.60;;;4.82;;
49730;SDS011;35622;52.008;5.426;2024-02-15T10:57:12;10.25;;;5.13;;
49730;SDS011;35622;52.008;5.426;2024-02-15T11:00:02;11.32;;;5.25;;
49730;SDS011;35622;52.008;5.426;2024-02-15T11:02:42;13.63;;;4.68;;
49730;SDS011;35622;52.008;5.426;2024-02-15T11:05:14;8.88;;;5.07;;
49730;SDS011;35622;52.008;5.426;2024-02-15T11:07:46;8.52;;;5.28;;
49730;SDS011;35622;52.008;5.426;2024-02-15T11:10:11;11.25;;;4.72;;
49730;SDS011;35622;52.008;5.426;2024-02-15T11:12:41;10.43;;;5.47;;
49730;SDS011;35622;52.008;5.426;2024-02-15T11:15:08;11.07;;;5.25;;
49730;SDS011;35622;52.008;5.426;2024-02-15T11:20:08;10.27;;;5.22;;
49730;SDS011;35622;52.008;5.426;2024-02-15T11:22:36;11.13;;;5.38;;
49730;SDS011;35622;52.008;5.426;2024-02-15T11:25:03;9.65;;;5.07;;
49730;SDS011;35622;52.008;5.426;2024-02-15T11:27:33;10.95;;;5.82;;
49730;SDS011;35622;52.008;5.426;2024-02-15T11:30:02;12.48;;;5.60;;
49730;SDS011;35622;52.008;5.426;2024-02-15T11:45:06;11.50;;;5.35;;
49730;SDS011;35622;52.008;5.426;2024-02-15T11:47:38;11.60;;;5.28;;
49730;SDS011;35622;52.008;5.426;2024-02-15T11:50:08;10.60;;;4.97;;
49730;SDS011;35622;52.008;5.426;2024-02-15T11:52:40;8.73;;;5.18;;
49730;SDS011;35622;52.008;5.426;2024-02-15T11:55:07;8.73;;;5.70;;
49730;SDS011;35622;52.008;5.426;2024-02-15T11:57:38;10.18;;;5.50;;
49730;SDS011;35622;52.008;5.426;2024-02-15T12:00:19;8.95;;;5.53;;
49730;SDS011;35622;52.008;5.426;2024-02-15T12:03:03;7.25;;;5.25;;
49730;SDS011;35622;52.008;5.426;2024-02-15T12:05:49;9.95;;;5.85;;
49730;SDS011;35622;52.008;5.426;2024-02-15T12:08:33;12.30;;;5.75;;
49730;SDS011;35622;52.008;5.426;2024-02-15T12:11:18;10.23;;;5.20;;
49730;SDS011;35622;52.008;5.426;2024-02-15T12:14:01;9.43;;;5.78;;
49730;SDS011;35622;52.008;5.426;2024-02-15T12:16:46;7.82;;;5.32;;
49730;SDS011;35622;52.008;5.426;2024-02-15T12:19:30;7.30;;;5.15;;
49730;SDS011;35622;52.008;5.426;2024-02-15T12:21:55;8.85;;;5.20;;
49730;SDS011;35622;52.008;5.426;2024-02-15T12:24:24;8.18;;;5.15;;
49730;SDS011;35622;52.008;5.426;2024-02-15T12:26:52;9.07;;;4.53;;
49730;SDS011;35622;52.008;5.426;2024-02-15T12:29:26;6.28;;;4.10;;
49730;SDS011;35622;52.008;5.426;2024-02-15T12:31:51;7.05;;;4.32;;
49730;SDS011;35622;52.008;5.426;2024-02-15T12:34:18;7.13;;;3.75;;
49730;SDS011;35622;52.008;5.426;2024-02-15T12:36:45;8.35;;;4.00;;
49730;SDS011;35622;52.008;5.426;2024-02-15T12:39:14;6.50;;;3.65;;
49730;SDS011;35622;52.008;5.426;2024-02-15T12:41:49;7.57;;;3.78;;
49730;SDS011;35622;52.008;5.426;2024-02-15T12:44:17;7.20;;;3.40;;
49730;SDS011;35622;52.008;5.426;2024-02-15T12:46:47;6.53;;;3.60;;
49730;SDS011;35622;52.008;5.426;2024-02-15T12:51:52;6.43;;;3.33;;
49730;SDS011;35622;52.008;5.426;2024-02-15T12:54:39;5.82;;;3.35;;
49730;SDS011;35622;52.008;5.426;2024-02-15T12:57:08;7.47;;;3.15;;
49730;SDS011;35622;52.008;5.426;2024-02-15T12:59:38;7.00;;;3.20;;
49730;SDS011;35622;52.008;5.426;2024-02-15T13:02:04;5.50;;;3.08;;
49730;SDS011;35622;52.008;5.426;2024-02-15T13:04:30;5.15;;;3.40;;
49730;SDS011;35622;52.008;5.426;2024-02-15T13:06:55;4.68;;;3.10;;
49730;SDS011;35622;52.008;5.426;2024-02-15T13:09:21;6.15;;;3.00;;
49730;SDS011;35622;52.008;5.426;2024-02-15T13:11:48;8.05;;;2.90;;
49730;SDS011;35622;52.008;5.426;2024-02-15T13:14:15;9.30;;;3.03;;
49730;SDS011;35622;52.008;5.426;2024-02-15T13:16:41;5.40;;;2.80;;
49730;SDS011;35622;52.008;5.426;2024-02-15T13:19:08;6.63;;;2.85;;
49730;SDS011;35622;52.008;5.426;2024-02-15T13:21:33;5.80;;;2.65;;
49730;SDS011;35622;52.008;5.426;2024-02-15T13:23:59;7.15;;;2.72;;
49730;SDS011;35622;52.008;5.426;2024-02-15T13:26:29;6.57;;;2.47;;
49730;SDS011;35622;52.008;5.426;2024-02-15T13:28:55;5.22;;;2.40;;
49730;SDS011;35622;52.008;5.426;2024-02-15T13:31:21;7.43;;;2.72;;
49730;SDS011;35622;52.008;5.426;2024-02-15T13:33:47;7.18;;;2.65;;
49730;SDS011;35622;52.008;5.426;2024-02-15T13:36:13;6.80;;;2.53;;
49730;SDS011;35622;52.008;5.426;2024-02-15T13:38:40;6.43;;;2.78;;
49730;SDS011;35622;52.008;5.426;2024-02-15T13:41:07;7.25;;;2.70;;
49730;SDS011;35622;52.008;5.426;2024-02-15T13:43:33;6.85;;;3.40;;
49730;SDS011;35622;52.008;5.426;2024-02-15T13:45:59;7.68;;;3.88;;
49730;SDS011;35622;52.008;5.426;2024-02-15T13:48:26;7.55;;;3.65;;
49730;SDS011;35622;52.008;5.426;2024-02-15T13:50:55;6.78;;;3.05;;
49730;SDS011;35622;52.008;5.426;2024-02-15T13:53:21;5.97;;;3.65;;
49730;SDS011;35622;52.008;5.426;2024-02-15T13:55:47;5.95;;;3.50;;
49730;SDS011;35622;52.008;5.426;2024-02-15T13:58:13;6.93;;;4.07;;
49730;SDS011;35622;52.008;5.426;2024-02-15T14:00:39;8.55;;;3.97;;
49730;SDS011;35622;52.008;5.426;2024-02-15T14:03:07;6.72;;;3.63;;
49730;SDS011;35622;52.008;5.426;2024-02-15T14:05:35;5.60;;;3.85;;
49730;SDS011;35622;52.008;5.426;2024-02-15T14:08:01;6.28;;;3.38;;
49730;SDS011;35622;52.008;5.426;2024-02-15T14:10:28;7.70;;;3.30;;
49730;SDS011;35622;52.008;5.426;2024-02-15T14:12:55;7.80;;;3.25;;
49730;SDS011;35622;52.008;5.426;2024-02-15T14:15:23;6.95;;;3.50;;
49730;SDS011;35622;52.008;5.426;2024-02-15T14:17:49;6.53;;;3.40;;
49730;SDS011;35622;52.008;5.426;2024-02-15T14:20:14;7.05;;;3.40;;
49730;SDS011;35622;52.008;5.426;2024-02-15T14:22:44;7.43;;;3.42;;
49730;SDS011;35622;52.008;5.426;2024-02-15T14:25:14;6.45;;;3.40;;
49730;SDS011;35622;52.008;5.426;2024-02-15T14:27:40;7.85;;;3.08;;
49730;SDS011;35622;52.008;5.426;2024-02-15T14:30:07;5.85;;;3.00;;
49730;SDS011;35622;52.008;5.426;2024-02-15T14:32:51;5.55;;;3.15;;
49730;SDS011;35622;52.008;5.426;2024-02-15T14:35:28;7.75;;;2.65;;
49730;SDS011;35622;52.008;5.426;2024-02-15T14:37:59;5.85;;;2.40;;
49730;SDS011;35622;52.008;5.426;2024-02-15T14:40:28;7.00;;;3.28;;
49730;SDS011;35622;52.008;5.426;2024-02-15T14:42:53;5.20;;;2.58;;
49730;SDS011;35622;52.008;5.426;2024-02-15T14:45:19;5.35;;;3.10;;
49730;SDS011;35622;52.008;5.426;2024-02-15T14:47:45;4.22;;;2.97;;
49730;SDS011;35622;52.008;5.426;2024-02-15T14:50:12;5.70;;;2.90;;
49730;SDS011;35622;52.008;5.426;2024-02-15T14:52:39;6.90;;;2.78;;
49730;SDS011;35622;52.008;5.426;2024-02-15T14:55:05;5.57;;;2.80;;